sensor_id;sensor_type;location;lat;lon;timestamp;temperature;humidity
74416;SHT31;62850;42.428;25.618;2023-07-09T00:02:22;19.91;73.45
74416;SHT31;62850;42.428;25.618;2023-07-09T00:04:47;19.84;74.03
74416;SHT31;62850;42.428;25.618;2023-07-09T00:07:23;19.78;73.29
74416;SHT31;62850;42.428;25.618;2023-07-09T00:09:50;19.74;73.57
74416;SHT31;62850;42.428;25.618;2023-07-09T00:12:17;19.74;73.40
74416;SHT31;62850;42.428;25.618;2023-07-09T00:14:44;19.71;73.03
74416;SHT31;62850;42.428;25.618;2023-07-09T00:17:30;19.87;72.51
74416;SHT31;62850;42.428;25.618;2023-07-09T00:20:02;19.93;72.59
74416;SHT31;62850;42.428;25.618;2023-07-09T00:22:30;19.97;72.15
74416;SHT31;62850;42.428;25.618;2023-07-09T00:24:55;20.04;69.97
74416;SHT31;62850;42.428;25.618;2023-07-09T00:27:23;20.14;67.97
74416;SHT31;62850;42.428;25.618;2023-07-09T00:29:51;20.28;69.02
74416;SHT31;62850;42.428;25.618;2023-07-09T00:32:19;20.45;68.71
74416;SHT31;62850;42.428;25.618;2023-07-09T00:34:47;20.52;66.70
74416;SHT31;62850;42.428;25.618;2023-07-09T00:37:17;20.61;67.31
74416;SHT31;62850;42.428;25.618;2023-07-09T00:39:44;20.76;66.36
74416;SHT31;62850;42.428;25.618;2023-07-09T00:42:21;20.83;65.11
74416;SHT31;62850;42.428;25.618;2023-07-09T00:44:54;20.89;64.38
74416;SHT31;62850;42.428;25.618;2023-07-09T00:47:47;21.01;65.43
74416;SHT31;62850;42.428;25.618;2023-07-09T00:50:34;21.11;64.28
74416;SHT31;62850;42.428;25.618;2023-07-09T00:53:25;21.21;65.13
74416;SHT31;62850;42.428;25.618;2023-07-09T00:56:38;21.19;65.75
74416;SHT31;62850;42.428;25.618;2023-07-09T00:58:45;21.14;65.25
74416;SHT31;62850;42.428;25.618;2023-07-09T01:01:17;21.10;65.75
74416;SHT31;62850;42.428;25.618;2023-07-09T01:03:54;21.14;65.32
74416;SHT31;62850;42.428;25.618;2023-07-09T01:06:31;20.99;66.09
74416;SHT31;62850;42.428;25.618;2023-07-09T01:09:01;20.92;65.54
74416;SHT31;62850;42.428;25.618;2023-07-09T01:11:27;20.94;65.22
74416;SHT31;62850;42.428;25.618;2023-07-09T01:13:54;21.00;65.05
74416;SHT31;62850;42.428;25.618;2023-07-09T01:16:22;20.97;63.36
74416;SHT31;62850;42.428;25.618;2023-07-09T01:18:53;20.92;63.05
74416;SHT31;62850;42.428;25.618;2023-07-09T01:21:19;20.90;62.07
74416;SHT31;62850;42.428;25.618;2023-07-09T01:23:47;20.92;61.79
74416;SHT31;62850;42.428;25.618;2023-07-09T01:26:15;20.92;61.79
74416;SHT31;62850;42.428;25.618;2023-07-09T01:28:41;20.94;61.29
74416;SHT31;62850;42.428;25.618;2023-07-09T01:31:12;21.00;61.00
74416;SHT31;62850;42.428;25.618;2023-07-09T01:33:40;21.00;60.96
74416;SHT31;62850;42.428;25.618;2023-07-09T01:36:08;20.99;61.20
74416;SHT31;62850;42.428;25.618;2023-07-09T01:38:34;20.97;61.01
74416;SHT31;62850;42.428;25.618;2023-07-09T01:41:00;21.03;60.64
74416;SHT31;62850;42.428;25.618;2023-07-09T01:43:27;21.08;60.10
74416;SHT31;62850;42.428;25.618;2023-07-09T01:45:52;21.13;60.01
74416;SHT31;62850;42.428;25.618;2023-07-09T01:48:23;21.15;60.11
74416;SHT31;62850;42.428;25.618;2023-07-09T01:50:50;21.19;60.17
74416;SHT31;62850;42.428;25.618;2023-07-09T01:53:17;21.15;60.16
74416;SHT31;62850;42.428;25.618;2023-07-09T01:55:43;21.19;60.13
74416;SHT31;62850;42.428;25.618;2023-07-09T01:58:09;21.23;59.75
74416;SHT31;62850;42.428;25.618;2023-07-09T02:00:36;21.20;59.70
74416;SHT31;62850;42.428;25.618;2023-07-09T02:03:03;21.19;59.71
74416;SHT31;62850;42.428;25.618;2023-07-09T02:05:30;21.30;59.55
74416;SHT31;62850;42.428;25.618;2023-07-09T02:07:57;21.27;59.42
74416;SHT31;62850;42.428;25.618;2023-07-09T02:10:22;21.20;59.68
74416;SHT31;62850;42.428;25.618;2023-07-09T02:12:48;21.17;59.63
74416;SHT31;62850;42.428;25.618;2023-07-09T02:15:14;21.19;59.68
74416;SHT31;62850;42.428;25.618;2023-07-09T02:17:40;21.20;59.49
74416;SHT31;62850;42.428;25.618;2023-07-09T02:20:07;21.20;59.45
74416;SHT31;62850;42.428;25.618;2023-07-09T02:22:34;21.26;59.25
74416;SHT31;62850;42.428;25.618;2023-07-09T02:25:00;21.23;59.38
74416;SHT31;62850;42.428;25.618;2023-07-09T02:27:26;21.26;59.23
74416;SHT31;62850;42.428;25.618;2023-07-09T02:29:51;21.19;59.24
74416;SHT31;62850;42.428;25.618;2023-07-09T02:32:21;21.24;59.15
74416;SHT31;62850;42.428;25.618;2023-07-09T02:34:47;21.27;58.90
74416;SHT31;62850;42.428;25.618;2023-07-09T02:37:19;21.21;58.98
74416;SHT31;62850;42.428;25.618;2023-07-09T02:39:45;21.06;59.27
74416;SHT31;62850;42.428;25.618;2023-07-09T02:42:13;21.00;59.62
74416;SHT31;62850;42.428;25.618;2023-07-09T02:44:40;21.04;59.53
74416;SHT31;62850;42.428;25.618;2023-07-09T02:47:06;21.01;59.55
74416;SHT31;62850;42.428;25.618;2023-07-09T02:49:32;21.07;59.44
74416;SHT31;62850;42.428;25.618;2023-07-09T02:51:57;21.06;59.31
74416;SHT31;62850;42.428;25.618;2023-07-09T02:54:23;21.00;59.37
74416;SHT31;62850;42.428;25.618;2023-07-09T02:56:48;21.04;59.59
74416;SHT31;62850;42.428;25.618;2023-07-09T02:59:14;21.00;59.63
74416;SHT31;62850;42.428;25.618;2023-07-09T03:01:40;20.99;59.41
74416;SHT31;62850;42.428;25.618;2023-07-09T03:04:05;20.87;59.86
74416;SHT31;62850;42.428;25.618;2023-07-09T03:06:32;20.86;59.87
74416;SHT31;62850;42.428;25.618;2023-07-09T03:09:00;20.84;59.95
74416;SHT31;62850;42.428;25.618;2023-07-09T03:11:28;20.80;60.08
74416;SHT31;62850;42.428;25.618;2023-07-09T03:13:55;20.71;60.19
74416;SHT31;62850;42.428;25.618;2023-07-09T03:16:20;20.68;60.34
74416;SHT31;62850;42.428;25.618;2023-07-09T03:18:46;20.69;60.39
74416;SHT31;62850;42.428;25.618;2023-07-09T03:21:11;20.61;60.32
74416;SHT31;62850;42.428;25.618;2023-07-09T03:23:37;20.57;60.44
74416;SHT31;62850;42.428;25.618;2023-07-09T03:26:03;20.61;60.36
74416;SHT31;62850;42.428;25.618;2023-07-09T03:28:31;20.61;60.33
74416;SHT31;62850;42.428;25.618;2023-07-09T03:30:57;20.66;60.29
74416;SHT31;62850;42.428;25.618;2023-07-09T03:33:23;20.73;60.13
74416;SHT31;62850;42.428;25.618;2023-07-09T03:35:51;20.72;60.31
74416;SHT31;62850;42.428;25.618;2023-07-09T03:38:17;20.79;60.71
74416;SHT31;62850;42.428;25.618;2023-07-09T03:40:43;20.86;60.19
74416;SHT31;62850;42.428;25.618;2023-07-09T03:43:09;20.86;60.05
74416;SHT31;62850;42.428;25.618;2023-07-09T03:45:36;20.90;59.80
74416;SHT31;62850;42.428;25.618;2023-07-09T03:48:03;21.03;59.91
74416;SHT31;62850;42.428;25.618;2023-07-09T03:50:29;21.11;60.24
74416;SHT31;62850;42.428;25.618;2023-07-09T03:52:55;21.19;59.85
74416;SHT31;62850;42.428;25.618;2023-07-09T03:55:20;21.21;59.53
74416;SHT31;62850;42.428;25.618;2023-07-09T03:57:46;21.32;59.61
74416;SHT31;62850;42.428;25.618;2023-07-09T04:00:12;21.37;60.16
74416;SHT31;62850;42.428;25.618;2023-07-09T04:02:39;21.41;59.77
74416;SHT31;62850;42.428;25.618;2023-07-09T04:05:06;21.48;60.18
74416;SHT31;62850;42.428;25.618;2023-07-09T04:07:31;21.58;59.99
74416;SHT31;62850;42.428;25.618;2023-07-09T04:09:57;21.61;59.64
74416;SHT31;62850;42.428;25.618;2023-07-09T04:12:22;21.61;59.55
74416;SHT31;62850;42.428;25.618;2023-07-09T04:14:48;21.55;59.79
74416;SHT31;62850;42.428;25.618;2023-07-09T04:17:14;21.57;60.00
74416;SHT31;62850;42.428;25.618;2023-07-09T04:19:39;21.59;59.83
74416;SHT31;62850;42.428;25.618;2023-07-09T04:22:04;21.59;59.89
74416;SHT31;62850;42.428;25.618;2023-07-09T04:24:30;21.63;59.50
74416;SHT31;62850;42.428;25.618;2023-07-09T04:26:57;21.61;59.40
74416;SHT31;62850;42.428;25.618;2023-07-09T04:29:23;21.63;59.10
74416;SHT31;62850;42.428;25.618;2023-07-09T04:31:48;21.63;59.14
74416;SHT31;62850;42.428;25.618;2023-07-09T04:34:14;21.69;58.77
74416;SHT31;62850;42.428;25.618;2023-07-09T04:36:40;21.82;58.11
74416;SHT31;62850;42.428;25.618;2023-07-09T04:39:05;21.85;58.09
74416;SHT31;62850;42.428;25.618;2023-07-09T04:41:31;21.95;57.27
74416;SHT31;62850;42.428;25.618;2023-07-09T04:43:57;21.99;57.39
74416;SHT31;62850;42.428;25.618;2023-07-09T04:46:22;22.06;57.35
74416;SHT31;62850;42.428;25.618;2023-07-09T04:48:48;22.17;56.97
74416;SHT31;62850;42.428;25.618;2023-07-09T04:51:13;22.26;56.31
74416;SHT31;62850;42.428;25.618;2023-07-09T04:53:39;22.28;56.14
74416;SHT31;62850;42.428;25.618;2023-07-09T04:56:04;22.32;55.33
74416;SHT31;62850;42.428;25.618;2023-07-09T04:58:31;22.30;55.45
74416;SHT31;62850;42.428;25.618;2023-07-09T05:00:57;22.36;55.24
74416;SHT31;62850;42.428;25.618;2023-07-09T05:03:23;22.40;55.07
74416;SHT31;62850;42.428;25.618;2023-07-09T05:05:49;22.44;54.80
74416;SHT31;62850;42.428;25.618;2023-07-09T05:08:15;22.47;54.47
74416;SHT31;62850;42.428;25.618;2023-07-09T05:10:48;22.54;54.55
74416;SHT31;62850;42.428;25.618;2023-07-09T05:13:15;22.57;53.72
74416;SHT31;62850;42.428;25.618;2023-07-09T05:15:45;22.58;53.16
74416;SHT31;62850;42.428;25.618;2023-07-09T05:18:12;22.65;53.35
74416;SHT31;62850;42.428;25.618;2023-07-09T05:20:38;22.78;51.77
74416;SHT31;62850;42.428;25.618;2023-07-09T05:23:04;22.83;52.16
74416;SHT31;62850;42.428;25.618;2023-07-09T05:25:30;22.90;52.41
74416;SHT31;62850;42.428;25.618;2023-07-09T05:27:55;22.91;52.27
74416;SHT31;62850;42.428;25.618;2023-07-09T05:30:21;22.94;51.73
74416;SHT31;62850;42.428;25.618;2023-07-09T05:32:47;22.99;50.98
74416;SHT31;62850;42.428;25.618;2023-07-09T05:35:13;23.05;51.33
74416;SHT31;62850;42.428;25.618;2023-07-09T05:37:38;23.14;49.97
74416;SHT31;62850;42.428;25.618;2023-07-09T05:40:05;23.22;50.66
74416;SHT31;62850;42.428;25.618;2023-07-09T05:42:32;23.20;48.85
74416;SHT31;62850;42.428;25.618;2023-07-09T05:44:58;23.18;49.17
74416;SHT31;62850;42.428;25.618;2023-07-09T05:47:24;23.23;49.20
74416;SHT31;62850;42.428;25.618;2023-07-09T05:49:50;23.30;48.23
74416;SHT31;62850;42.428;25.618;2023-07-09T05:52:22;23.29;48.75
74416;SHT31;62850;42.428;25.618;2023-07-09T05:54:50;23.23;48.82
74416;SHT31;62850;42.428;25.618;2023-07-09T05:57:16;23.29;48.52
74416;SHT31;62850;42.428;25.618;2023-07-09T05:59:42;23.25;48.75
74416;SHT31;62850;42.428;25.618;2023-07-09T06:02:18;23.38;49.22
74416;SHT31;62850;42.428;25.618;2023-07-09T06:04:44;23.39;48.96
74416;SHT31;62850;42.428;25.618;2023-07-09T06:07:10;23.47;48.96
74416;SHT31;62850;42.428;25.618;2023-07-09T06:09:36;23.59;49.18
74416;SHT31;62850;42.428;25.618;2023-07-09T06:12:03;23.56;49.44
74416;SHT31;62850;42.428;25.618;2023-07-09T06:14:29;23.59;50.02
74416;SHT31;62850;42.428;25.618;2023-07-09T06:16:55;23.67;49.08
74416;SHT31;62850;42.428;25.618;2023-07-09T06:19:21;23.74;49.24
74416;SHT31;62850;42.428;25.618;2023-07-09T06:21:47;23.70;49.25
74416;SHT31;62850;42.428;25.618;2023-07-09T06:24:13;23.76;49.35
74416;SHT31;62850;42.428;25.618;2023-07-09T06:26:38;23.86;49.47
74416;SHT31;62850;42.428;25.618;2023-07-09T06:29:05;23.88;48.59
74416;SHT31;62850;42.428;25.618;2023-07-09T06:31:31;23.93;48.33
74416;SHT31;62850;42.428;25.618;2023-07-09T06:33:56;24.07;48.45
74416;SHT31;62850;42.428;25.618;2023-07-09T06:36:22;24.25;48.36
74416;SHT31;62850;42.428;25.618;2023-07-09T06:38:47;24.34;49.00
74416;SHT31;62850;42.428;25.618;2023-07-09T06:41:14;24.31;49.80
74416;SHT31;62850;42.428;25.618;2023-07-09T06:43:40;24.34;47.73
74416;SHT31;62850;42.428;25.618;2023-07-09T06:46:08;24.34;48.14
74416;SHT31;62850;42.428;25.618;2023-07-09T06:48:34;24.28;47.75
74416;SHT31;62850;42.428;25.618;2023-07-09T06:51:00;24.25;48.03
74416;SHT31;62850;42.428;25.618;2023-07-09T06:53:27;24.38;48.06
74416;SHT31;62850;42.428;25.618;2023-07-09T06:55:53;24.39;47.90
74416;SHT31;62850;42.428;25.618;2023-07-09T06:58:21;24.36;48.48
74416;SHT31;62850;42.428;25.618;2023-07-09T07:00:50;24.51;48.80
74416;SHT31;62850;42.428;25.618;2023-07-09T07:03:16;24.62;48.03
74416;SHT31;62850;42.428;25.618;2023-07-09T07:05:45;24.58;48.14
74416;SHT31;62850;42.428;25.618;2023-07-09T07:08:14;24.59;48.11
74416;SHT31;62850;42.428;25.618;2023-07-09T07:10:40;24.72;48.01
74416;SHT31;62850;42.428;25.618;2023-07-09T07:13:06;24.86;47.15
74416;SHT31;62850;42.428;25.618;2023-07-09T07:15:31;24.85;46.18
74416;SHT31;62850;42.428;25.618;2023-07-09T07:17:57;24.97;45.38
74416;SHT31;62850;42.428;25.618;2023-07-09T07:20:22;25.00;45.54
74416;SHT31;62850;42.428;25.618;2023-07-09T07:22:48;24.96;44.86
74416;SHT31;62850;42.428;25.618;2023-07-09T07:25:14;25.00;45.42
74416;SHT31;62850;42.428;25.618;2023-07-09T07:27:39;25.10;45.52
74416;SHT31;62850;42.428;25.618;2023-07-09T07:30:05;25.22;45.13
74416;SHT31;62850;42.428;25.618;2023-07-09T07:32:35;25.27;44.71
74416;SHT31;62850;42.428;25.618;2023-07-09T07:35:01;25.35;44.38
74416;SHT31;62850;42.428;25.618;2023-07-09T07:37:26;25.51;43.88
74416;SHT31;62850;42.428;25.618;2023-07-09T07:39:52;25.62;43.32
74416;SHT31;62850;42.428;25.618;2023-07-09T07:42:18;25.80;43.41
74416;SHT31;62850;42.428;25.618;2023-07-09T07:44:44;25.72;43.35
74416;SHT31;62850;42.428;25.618;2023-07-09T07:47:10;25.67;43.47
74416;SHT31;62850;42.428;25.618;2023-07-09T07:49:37;25.47;43.69
74416;SHT31;62850;42.428;25.618;2023-07-09T07:52:03;25.65;43.04
74416;SHT31;62850;42.428;25.618;2023-07-09T07:54:29;25.91;42.87
74416;SHT31;62850;42.428;25.618;2023-07-09T07:56:57;26.15;43.62
74416;SHT31;62850;42.428;25.618;2023-07-09T07:59:23;26.12;42.62
74416;SHT31;62850;42.428;25.618;2023-07-09T08:01:49;26.18;42.72
74416;SHT31;62850;42.428;25.618;2023-07-09T08:04:15;26.18;42.11
74416;SHT31;62850;42.428;25.618;2023-07-09T08:06:40;26.32;42.25
74416;SHT31;62850;42.428;25.618;2023-07-09T08:09:06;26.57;42.03
74416;SHT31;62850;42.428;25.618;2023-07-09T08:11:31;26.43;40.23
74416;SHT31;62850;42.428;25.618;2023-07-09T08:13:58;26.53;39.65
74416;SHT31;62850;42.428;25.618;2023-07-09T08:16:23;26.76;39.37
74416;SHT31;62850;42.428;25.618;2023-07-09T08:18:49;27.01;38.98
74416;SHT31;62850;42.428;25.618;2023-07-09T08:21:17;27.00;38.52
74416;SHT31;62850;42.428;25.618;2023-07-09T08:23:42;27.11;38.21
74416;SHT31;62850;42.428;25.618;2023-07-09T08:26:08;27.37;38.11
74416;SHT31;62850;42.428;25.618;2023-07-09T08:28:34;27.56;37.62
74416;SHT31;62850;42.428;25.618;2023-07-09T08:31:00;27.69;37.45
74416;SHT31;62850;42.428;25.618;2023-07-09T08:33:26;27.76;36.68
74416;SHT31;62850;42.428;25.618;2023-07-09T08:35:52;28.08;36.83
74416;SHT31;62850;42.428;25.618;2023-07-09T08:38:18;28.27;35.71
74416;SHT31;62850;42.428;25.618;2023-07-09T08:41:09;28.38;36.21
74416;SHT31;62850;42.428;25.618;2023-07-09T08:44:36;28.16;35.27
74416;SHT31;62850;42.428;25.618;2023-07-09T08:52:12;28.07;36.05
74416;SHT31;62850;42.428;25.618;2023-07-09T08:54:41;28.16;35.44
74416;SHT31;62850;42.428;25.618;2023-07-09T08:57:27;28.33;35.55
74416;SHT31;62850;42.428;25.618;2023-07-09T08:59:59;28.20;36.05
74416;SHT31;62850;42.428;25.618;2023-07-09T09:02:33;28.40;35.67
74416;SHT31;62850;42.428;25.618;2023-07-09T09:05:03;28.91;35.46
74416;SHT31;62850;42.428;25.618;2023-07-09T09:07:41;28.85;34.20
74416;SHT31;62850;42.428;25.618;2023-07-09T09:10:11;28.69;34.35
74416;SHT31;62850;42.428;25.618;2023-07-09T09:12:43;28.95;34.09
74416;SHT31;62850;42.428;25.618;2023-07-09T09:15:17;28.82;33.64
74416;SHT31;62850;42.428;25.618;2023-07-09T09:17:44;28.98;33.65
74416;SHT31;62850;42.428;25.618;2023-07-09T09:20:16;28.95;33.81
74416;SHT31;62850;42.428;25.618;2023-07-09T09:22:54;28.72;33.92
74416;SHT31;62850;42.428;25.618;2023-07-09T09:25:30;28.94;33.73
74416;SHT31;62850;42.428;25.618;2023-07-09T09:27:56;29.12;33.47
74416;SHT31;62850;42.428;25.618;2023-07-09T09:30:23;29.36;33.70
74416;SHT31;62850;42.428;25.618;2023-07-09T09:33:06;29.43;32.89
74416;SHT31;62850;42.428;25.618;2023-07-09T09:35:37;29.26;32.78
74416;SHT31;62850;42.428;25.618;2023-07-09T09:38:10;29.31;32.84
74416;SHT31;62850;42.428;25.618;2023-07-09T09:40:36;29.00;32.84
74416;SHT31;62850;42.428;25.618;2023-07-09T09:43:04;29.03;32.60
74416;SHT31;62850;42.428;25.618;2023-07-09T09:45:37;29.34;32.78
74416;SHT31;62850;42.428;25.618;2023-07-09T09:48:17;29.46;32.85
74416;SHT31;62850;42.428;25.618;2023-07-09T09:50:45;29.53;32.19
74416;SHT31;62850;42.428;25.618;2023-07-09T09:53:19;29.75;31.49
74416;SHT31;62850;42.428;25.618;2023-07-09T09:55:45;29.89;31.56
74416;SHT31;62850;42.428;25.618;2023-07-09T09:58:14;29.94;31.27
74416;SHT31;62850;42.428;25.618;2023-07-09T10:00:40;29.82;31.96
74416;SHT31;62850;42.428;25.618;2023-07-09T10:03:13;30.11;31.27
74416;SHT31;62850;42.428;25.618;2023-07-09T10:05:43;30.06;31.60
74416;SHT31;62850;42.428;25.618;2023-07-09T10:10:46;30.45;30.97
74416;SHT31;62850;42.428;25.618;2023-07-09T10:21:21;29.86;31.69
74416;SHT31;62850;42.428;25.618;2023-07-09T10:26:44;29.97;31.41
74416;SHT31;62850;42.428;25.618;2023-07-09T10:40:10;29.65;32.00
74416;SHT31;62850;42.428;25.618;2023-07-09T10:42:48;29.60;32.68
74416;SHT31;62850;42.428;25.618;2023-07-09T10:45:43;29.82;32.48
74416;SHT31;62850;42.428;25.618;2023-07-09T10:48:25;29.63;32.33
74416;SHT31;62850;42.428;25.618;2023-07-09T10:50:55;29.65;32.40
74416;SHT31;62850;42.428;25.618;2023-07-09T10:53:40;29.70;32.26
74416;SHT31;62850;42.428;25.618;2023-07-09T10:56:21;30.00;32.08
74416;SHT31;62850;42.428;25.618;2023-07-09T10:58:57;30.06;31.64
74416;SHT31;62850;42.428;25.618;2023-07-09T11:01:32;29.77;32.62
74416;SHT31;62850;42.428;25.618;2023-07-09T11:04:06;29.82;32.71
74416;SHT31;62850;42.428;25.618;2023-07-09T11:06:44;29.97;32.54
74416;SHT31;62850;42.428;25.618;2023-07-09T11:09:22;29.95;32.44
74416;SHT31;62850;42.428;25.618;2023-07-09T11:11:51;29.97;32.79
74416;SHT31;62850;42.428;25.618;2023-07-09T11:16:53;30.32;31.71
74416;SHT31;62850;42.428;25.618;2023-07-09T11:19:20;30.36;31.70
74416;SHT31;62850;42.428;25.618;2023-07-09T11:22:06;30.29;32.13
74416;SHT31;62850;42.428;25.618;2023-07-09T11:25:04;30.29;32.42
74416;SHT31;62850;42.428;25.618;2023-07-09T11:27:30;30.37;32.21
74416;SHT31;62850;42.428;25.618;2023-07-09T11:30:02;30.40;32.20
74416;SHT31;62850;42.428;25.618;2023-07-09T11:32:28;30.39;32.19
74416;SHT31;62850;42.428;25.618;2023-07-09T11:34:54;30.35;32.68
74416;SHT31;62850;42.428;25.618;2023-07-09T11:37:25;30.36;32.53
74416;SHT31;62850;42.428;25.618;2023-07-09T11:39:51;30.19;32.53
74416;SHT31;62850;42.428;25.618;2023-07-09T11:44:50;30.88;32.24
74416;SHT31;62850;42.428;25.618;2023-07-09T11:47:24;30.83;31.99
74416;SHT31;62850;42.428;25.618;2023-07-09T11:50:00;30.80;32.20
74416;SHT31;62850;42.428;25.618;2023-07-09T11:54:54;30.67;31.55
74416;SHT31;62850;42.428;25.618;2023-07-09T11:57:21;30.84;31.55
74416;SHT31;62850;42.428;25.618;2023-07-09T11:59:46;30.93;31.49
74416;SHT31;62850;42.428;25.618;2023-07-09T12:02:20;31.03;31.34
74416;SHT31;62850;42.428;25.618;2023-07-09T12:04:50;30.98;30.99
74416;SHT31;62850;42.428;25.618;2023-07-09T12:07:16;31.30;30.47
74416;SHT31;62850;42.428;25.618;2023-07-09T12:09:47;31.20;30.92
74416;SHT31;62850;42.428;25.618;2023-07-09T12:12:23;31.34;30.43
74416;SHT31;62850;42.428;25.618;2023-07-09T12:14:49;31.31;30.83
74416;SHT31;62850;42.428;25.618;2023-07-09T12:17:15;31.04;30.75
74416;SHT31;62850;42.428;25.618;2023-07-09T12:19:40;31.06;31.15
74416;SHT31;62850;42.428;25.618;2023-07-09T12:22:11;31.38;30.63
74416;SHT31;62850;42.428;25.618;2023-07-09T12:24:42;31.39;30.44
74416;SHT31;62850;42.428;25.618;2023-07-09T12:27:37;31.42;30.13
74416;SHT31;62850;42.428;25.618;2023-07-09T12:30:08;31.11;30.77
74416;SHT31;62850;42.428;25.618;2023-07-09T12:32:43;31.38;30.61
74416;SHT31;62850;42.428;25.618;2023-07-09T12:35:13;31.51;31.24
74416;SHT31;62850;42.428;25.618;2023-07-09T12:37:39;31.34;31.13
74416;SHT31;62850;42.428;25.618;2023-07-09T12:40:13;31.45;31.29
74416;SHT31;62850;42.428;25.618;2023-07-09T12:42:41;31.35;31.65
74416;SHT31;62850;42.428;25.618;2023-07-09T12:45:18;31.18;32.50
74416;SHT31;62850;42.428;25.618;2023-07-09T12:47:45;30.90;32.60
74416;SHT31;62850;42.428;25.618;2023-07-09T12:50:28;30.59;32.67
74416;SHT31;62850;42.428;25.618;2023-07-09T12:52:56;30.62;33.09
74416;SHT31;62850;42.428;25.618;2023-07-09T12:55:25;30.57;33.20
74416;SHT31;62850;42.428;25.618;2023-07-09T12:57:55;30.77;32.92
74416;SHT31;62850;42.428;25.618;2023-07-09T13:00:21;30.87;33.48
74416;SHT31;62850;42.428;25.618;2023-07-09T13:02:53;30.69;33.60
74416;SHT31;62850;42.428;25.618;2023-07-09T13:05:22;30.69;33.27
74416;SHT31;62850;42.428;25.618;2023-07-09T13:07:53;30.83;34.10
74416;SHT31;62850;42.428;25.618;2023-07-09T13:10:23;30.57;32.59
74416;SHT31;62850;42.428;25.618;2023-07-09T13:12:51;30.63;33.18
74416;SHT31;62850;42.428;25.618;2023-07-09T13:17:49;30.45;32.49
74416;SHT31;62850;42.428;25.618;2023-07-09T13:20:14;30.80;32.40
74416;SHT31;62850;42.428;25.618;2023-07-09T13:22:42;30.91;32.25
74416;SHT31;62850;42.428;25.618;2023-07-09T13:25:09;31.20;32.08
74416;SHT31;62850;42.428;25.618;2023-07-09T13:27:35;31.00;32.30
74416;SHT31;62850;42.428;25.618;2023-07-09T13:30:00;31.10;31.96
74416;SHT31;62850;42.428;25.618;2023-07-09T13:32:26;31.03;31.44
74416;SHT31;62850;42.428;25.618;2023-07-09T13:34:51;31.14;30.72
74416;SHT31;62850;42.428;25.618;2023-07-09T13:37:17;31.10;30.44
74416;SHT31;62850;42.428;25.618;2023-07-09T13:39:42;31.28;31.44
74416;SHT31;62850;42.428;25.618;2023-07-09T13:42:18;31.59;31.07
74416;SHT31;62850;42.428;25.618;2023-07-09T13:44:45;31.37;30.60
74416;SHT31;62850;42.428;25.618;2023-07-09T13:47:16;31.32;30.83
74416;SHT31;62850;42.428;25.618;2023-07-09T13:49:43;31.07;31.73
74416;SHT31;62850;42.428;25.618;2023-07-09T13:52:15;31.32;32.02
74416;SHT31;62850;42.428;25.618;2023-07-09T13:54:41;31.39;32.53
74416;SHT31;62850;42.428;25.618;2023-07-09T13:57:12;31.73;32.28
74416;SHT31;62850;42.428;25.618;2023-07-09T13:59:39;31.85;31.64
74416;SHT31;62850;42.428;25.618;2023-07-09T14:02:19;32.02;31.24
74416;SHT31;62850;42.428;25.618;2023-07-09T14:04:45;32.17;31.31
74416;SHT31;62850;42.428;25.618;2023-07-09T14:07:27;31.79;31.73
74416;SHT31;62850;42.428;25.618;2023-07-09T14:09:52;31.83;31.31
74416;SHT31;62850;42.428;25.618;2023-07-09T14:12:18;31.41;31.60
74416;SHT31;62850;42.428;25.618;2023-07-09T14:14:43;31.41;31.46
74416;SHT31;62850;42.428;25.618;2023-07-09T14:17:12;31.71;31.44
74416;SHT31;62850;42.428;25.618;2023-07-09T14:19:37;31.62;31.15
74416;SHT31;62850;42.428;25.618;2023-07-09T14:22:28;31.73;31.13
74416;SHT31;62850;42.428;25.618;2023-07-09T14:24:50;31.75;31.60
74416;SHT31;62850;42.428;25.618;2023-07-09T14:27:17;31.41;31.09
74416;SHT31;62850;42.428;25.618;2023-07-09T14:29:43;31.73;31.40
74416;SHT31;62850;42.428;25.618;2023-07-09T14:32:38;31.82;31.21
74416;SHT31;62850;42.428;25.618;2023-07-09T14:37:36;31.27;31.67
74416;SHT31;62850;42.428;25.618;2023-07-09T14:40:02;31.06;32.23
74416;SHT31;62850;42.428;25.618;2023-07-09T14:42:30;31.53;31.98
74416;SHT31;62850;42.428;25.618;2023-07-09T14:44:56;31.68;32.22
74416;SHT31;62850;42.428;25.618;2023-07-09T14:47:21;31.93;31.29
74416;SHT31;62850;42.428;25.618;2023-07-09T14:49:48;31.69;31.05
74416;SHT31;62850;42.428;25.618;2023-07-09T14:52:15;31.58;31.27
74416;SHT31;62850;42.428;25.618;2023-07-09T14:54:43;31.10;31.66
74416;SHT31;62850;42.428;25.618;2023-07-09T14:57:18;30.84;32.18
74416;SHT31;62850;42.428;25.618;2023-07-09T14:59:45;31.10;32.21
74416;SHT31;62850;42.428;25.618;2023-07-09T15:04:53;30.69;33.00
74416;SHT31;62850;42.428;25.618;2023-07-09T15:07:19;30.69;33.21
74416;SHT31;62850;42.428;25.618;2023-07-09T15:09:45;30.97;33.57
74416;SHT31;62850;42.428;25.618;2023-07-09T15:12:19;30.62;33.22
74416;SHT31;62850;42.428;25.618;2023-07-09T15:14:48;30.56;33.70
74416;SHT31;62850;42.428;25.618;2023-07-09T15:17:13;30.60;33.57
74416;SHT31;62850;42.428;25.618;2023-07-09T15:19:38;30.70;33.88
74416;SHT31;62850;42.428;25.618;2023-07-09T15:22:05;30.43;33.52
74416;SHT31;62850;42.428;25.618;2023-07-09T15:24:33;30.26;33.99
74416;SHT31;62850;42.428;25.618;2023-07-09T15:27:00;30.29;34.22
74416;SHT31;62850;42.428;25.618;2023-07-09T15:29:27;30.18;34.33
74416;SHT31;62850;42.428;25.618;2023-07-09T15:31:54;30.09;34.39
74416;SHT31;62850;42.428;25.618;2023-07-09T15:34:20;30.16;34.67
74416;SHT31;62850;42.428;25.618;2023-07-09T15:36:48;30.42;34.19
74416;SHT31;62850;42.428;25.618;2023-07-09T15:39:14;29.91;34.28
74416;SHT31;62850;42.428;25.618;2023-07-09T15:41:40;29.94;34.48
74416;SHT31;62850;42.428;25.618;2023-07-09T15:44:10;29.77;34.72
74416;SHT31;62850;42.428;25.618;2023-07-09T15:46:36;29.82;34.87
74416;SHT31;62850;42.428;25.618;2023-07-09T15:49:04;30.09;34.83
74416;SHT31;62850;42.428;25.618;2023-07-09T15:51:29;30.28;35.03
74416;SHT31;62850;42.428;25.618;2023-07-09T15:53:56;30.26;34.90
74416;SHT31;62850;42.428;25.618;2023-07-09T15:58:47;29.84;34.77
74416;SHT31;62850;42.428;25.618;2023-07-09T16:01:14;29.73;35.27
74416;SHT31;62850;42.428;25.618;2023-07-09T16:03:51;29.78;35.09
74416;SHT31;62850;42.428;25.618;2023-07-09T16:06:18;29.85;35.11
74416;SHT31;62850;42.428;25.618;2023-07-09T16:08:45;29.75;35.63
74416;SHT31;62850;42.428;25.618;2023-07-09T16:11:22;29.75;35.74
74416;SHT31;62850;42.428;25.618;2023-07-09T16:13:48;29.40;35.98